Terminal Aerodrome Forecast
Issued by NWS

Home | Current Version | Previous Version | Text Only | Print | Product List | Glossary On
Versions: 1 2 3 4 5 6 7 8 9 10 11 12 13 14 15 16 17 18 19 20 21 22 23 24 25 26 27
000
FTUS41 KOKX 012000 AAC
TAFGON
TAF AMD
KGON 012031Z 0121/0218 VRB05KT 1/2SM SN FZFG BKN008 OVC015
      TEMPO 0123/0203 BKN004
     FM020800 VRB03KT 4SM BR OVC010
     FM020900 VRB04KT P6SM SCT015 BKN025
     FM021200 30007KT P6SM SCT025 BKN050
     FM021400 31014G22KT P6SM SCT250=

USA.gov is the U.S. government's official web portal to all federal, state and local government web resources and services.